createdAt,value
2018-06-12T00:01:43.673Z,9.90
2018-06-12T00:04:13.436Z,9.93
2018-06-12T00:06:42.698Z,9.23
2018-06-12T00:09:11.999Z,9.60
2018-06-12T00:11:41.250Z,10.30
2018-06-12T00:14:10.723Z,9.27
2018-06-12T00:16:40.059Z,10.47
2018-06-12T00:19:10.944Z,9.83
2018-06-12T00:21:40.200Z,9.27
2018-06-12T00:24:09.467Z,8.90
2018-06-12T00:26:38.730Z,9.80
2018-06-12T00:29:07.990Z,10.03
2018-06-12T00:31:37.254Z,9.23
2018-06-12T00:34:06.547Z,10.20
2018-06-12T00:36:35.771Z,8.97
2018-06-12T00:39:07.686Z,10.07
2018-06-12T00:41:37.164Z,10.53
2018-06-12T00:44:06.509Z,10.00
2018-06-12T00:46:35.756Z,9.97
2018-06-12T00:49:05.073Z,9.30
2018-06-12T00:51:34.389Z,8.50
2018-06-12T00:54:03.665Z,9.67
2018-06-12T00:56:44.327Z,9.23
2018-06-12T00:59:13.591Z,8.60
2018-06-12T01:01:42.842Z,8.43
2018-06-12T01:04:12.169Z,8.73
2018-06-12T01:06:41.066Z,8.77
2018-06-12T01:09:10.221Z,8.90
2018-06-12T01:11:39.508Z,9.53
2018-06-12T01:14:08.774Z,8.53
2018-06-12T01:16:38.079Z,9.77
2018-06-12T01:19:07.357Z,10.10
2018-06-12T01:21:36.625Z,10.20
2018-06-12T01:24:05.951Z,9.93
2018-06-12T01:26:35.291Z,11.30
2018-06-12T01:29:04.637Z,11.10
2018-06-12T01:31:33.916Z,10.23
2018-06-12T01:34:03.188Z,10.13
2018-06-12T01:36:32.428Z,10.73
2018-06-12T01:39:01.718Z,11.53
2018-06-12T01:41:30.983Z,11.77
2018-06-12T01:44:00.236Z,11.60
2018-06-12T01:46:29.518Z,11.40
2018-06-12T01:48:58.784Z,11.50
2018-06-12T01:51:28.189Z,12.00
2018-06-12T01:53:57.426Z,12.17
2018-06-12T01:56:26.699Z,11.90
2018-06-12T01:58:56.078Z,11.77
2018-06-12T02:01:25.379Z,10.87
2018-06-12T02:03:54.698Z,12.13
2018-06-12T02:06:23.941Z,11.43
2018-06-12T02:08:53.175Z,10.53
2018-06-12T02:11:22.437Z,12.10
2018-06-12T02:13:51.834Z,12.80
2018-06-12T02:16:21.106Z,13.30
2018-06-12T02:18:50.378Z,12.80
2018-06-12T02:21:19.633Z,14.33
2018-06-12T02:23:48.945Z,13.03
2018-06-12T02:26:18.237Z,12.60
2018-06-12T02:28:47.513Z,12.90
2018-06-12T02:31:16.783Z,14.30
2018-06-12T02:33:46.163Z,15.60
2018-06-12T02:36:15.436Z,14.63
2018-06-12T02:38:44.358Z,14.30
2018-06-12T02:41:13.160Z,15.00
2018-06-12T02:43:42.390Z,14.00
2018-06-12T02:46:11.720Z,15.07
2018-06-12T02:48:41.024Z,13.57
2018-06-12T02:51:10.297Z,12.87
2018-06-12T02:53:42.410Z,14.90
2018-06-12T02:56:11.967Z,14.73
2018-06-12T02:58:41.228Z,15.63
2018-06-12T03:01:10.501Z,15.53
2018-06-12T03:03:39.753Z,16.67
2018-06-12T03:06:09.093Z,14.90
2018-06-12T03:08:38.103Z,18.60
2018-06-12T03:11:07.381Z,16.47
2018-06-12T03:13:36.621Z,17.73
2018-06-12T03:16:06.001Z,17.03
2018-06-12T03:18:35.273Z,16.90
2018-06-12T03:21:04.601Z,17.77
2018-06-12T03:23:33.877Z,16.77
2018-06-12T03:26:03.101Z,14.83
2018-06-12T03:28:32.380Z,16.77
2018-06-12T03:31:01.678Z,15.20
2018-06-12T03:33:30.930Z,14.77
2018-06-12T03:36:01.044Z,15.70
2018-06-12T03:38:30.279Z,16.00
2018-06-12T03:40:59.629Z,17.00
2018-06-12T03:43:28.900Z,16.83
2018-06-12T03:45:58.153Z,16.37
2018-06-12T03:48:27.412Z,14.90
2018-06-12T03:50:56.664Z,14.03
2018-06-12T03:53:25.944Z,15.80
2018-06-12T03:55:55.245Z,15.90
2018-06-12T03:58:24.517Z,15.93
2018-06-12T04:00:53.789Z,13.77
2018-06-12T04:03:23.033Z,15.77
2018-06-12T04:05:52.316Z,16.63
2018-06-12T04:08:21.209Z,16.30
2018-06-12T04:10:50.363Z,15.67
2018-06-12T04:13:19.698Z,16.00
2018-06-12T04:15:49.049Z,16.70
2018-06-12T04:18:19.309Z,15.00
2018-06-12T04:20:48.550Z,16.37
2018-06-12T04:23:17.781Z,17.37
2018-06-12T04:25:47.033Z,14.20
2018-06-12T04:28:16.283Z,17.67
2018-06-12T04:30:45.615Z,17.20
2018-06-12T04:33:14.880Z,17.27
2018-06-12T04:35:44.116Z,18.97
2018-06-12T04:38:13.375Z,16.77
2018-06-12T04:40:42.680Z,20.77
2018-06-12T04:43:12.047Z,18.17
2018-06-12T04:45:41.373Z,16.03
2018-06-12T04:48:10.707Z,19.20
2018-06-12T04:50:39.958Z,18.37
2018-06-12T04:53:09.253Z,16.97
2018-06-12T04:55:38.567Z,18.70
2018-06-12T04:58:08.169Z,17.90
2018-06-12T05:00:37.419Z,18.30
2018-06-12T05:03:08.057Z,18.33
2018-06-12T05:05:37.343Z,17.70
2018-06-12T05:08:06.596Z,17.37
2018-06-12T05:10:35.928Z,16.87
2018-06-12T05:13:05.189Z,17.93
2018-06-12T05:15:34.561Z,19.20
2018-06-12T05:18:03.848Z,18.53
2018-06-12T05:20:33.111Z,19.70
2018-06-12T05:23:02.447Z,21.07
2018-06-12T05:25:31.772Z,17.00
2018-06-12T05:28:01.102Z,18.03
2018-06-12T05:30:30.404Z,15.73
2018-06-12T05:32:59.717Z,18.00
2018-06-12T05:35:29.114Z,19.17
2018-06-12T05:37:58.517Z,18.70
2018-06-12T05:40:27.895Z,19.30
2018-06-12T05:42:57.402Z,19.50
2018-06-12T05:45:26.723Z,18.00
2018-06-12T05:47:56.104Z,19.00
2018-06-12T05:50:25.431Z,17.73
2018-06-12T05:52:54.724Z,20.40
2018-06-12T05:55:24.026Z,23.83
2018-06-12T05:57:53.314Z,21.20
2018-06-12T06:00:22.569Z,20.77
2018-06-12T06:02:52.018Z,21.30
2018-06-12T06:05:22.016Z,19.57
2018-06-12T06:07:51.489Z,19.77
2018-06-12T06:10:20.770Z,20.73
2018-06-12T06:12:50.152Z,21.17
2018-06-12T06:15:19.951Z,19.20
2018-06-12T06:17:49.292Z,20.27
2018-06-12T06:20:18.683Z,20.60
2018-06-12T06:22:48.077Z,21.30
2018-06-12T06:25:17.365Z,20.97
2018-06-12T06:27:46.666Z,17.80
2018-06-12T06:30:15.997Z,23.33
2018-06-12T06:32:45.336Z,20.37
2018-06-12T06:35:14.764Z,21.17
2018-06-12T06:37:44.138Z,21.33
2018-06-12T06:40:13.438Z,22.77
2018-06-12T06:42:42.727Z,20.97
2018-06-12T06:45:12.041Z,19.30
2018-06-12T06:47:41.365Z,18.20
2018-06-12T06:50:10.667Z,19.37
2018-06-12T06:52:40.036Z,17.73
2018-06-12T06:55:09.415Z,20.00
2018-06-12T06:57:38.900Z,19.17
2018-06-12T07:00:08.195Z,20.70
2018-06-12T07:02:38.315Z,18.27
2018-06-12T07:05:07.638Z,20.20
2018-06-12T07:07:37.028Z,20.00
2018-06-12T07:10:06.897Z,18.30
2018-06-12T07:12:36.482Z,20.67
2018-06-12T07:15:06.224Z,17.80
2018-06-12T07:17:35.678Z,19.03
2018-06-12T07:20:05.071Z,18.37
2018-06-12T07:22:34.167Z,21.70
2018-06-12T07:25:03.452Z,18.40
2018-06-12T07:27:32.847Z,18.87
2018-06-12T07:30:01.920Z,18.67
2018-06-12T07:32:31.360Z,18.27
2018-06-12T07:35:00.752Z,19.40
2018-06-12T07:37:30.295Z,18.80
2018-06-12T07:39:59.675Z,17.90
2018-06-12T07:42:29.259Z,18.53
2018-06-12T07:44:59.714Z,18.70
2018-06-12T07:47:29.566Z,17.70
2018-06-12T07:49:59.237Z,17.83
2018-06-12T07:52:28.865Z,17.77
2018-06-12T07:54:58.465Z,17.70
2018-06-12T07:57:34.309Z,16.67
2018-06-12T08:00:03.943Z,18.43
2018-06-12T08:02:33.444Z,16.90
2018-06-12T08:05:02.756Z,17.80
2018-06-12T08:07:32.417Z,17.60
2018-06-12T08:10:01.693Z,16.23
2018-06-12T08:12:30.992Z,13.67
2018-06-12T08:15:00.307Z,16.03
2018-06-12T08:17:29.596Z,16.10
2018-06-12T08:19:58.963Z,13.80
2018-06-12T08:22:28.228Z,13.77
2018-06-12T08:24:58.617Z,14.00
2018-06-12T08:27:28.152Z,11.60
2018-06-12T08:29:57.759Z,12.67
2018-06-12T08:32:27.347Z,10.97
2018-06-12T08:34:56.663Z,10.90
2018-06-12T08:37:26.768Z,10.07
2018-06-12T08:39:56.220Z,10.33
2018-06-12T08:42:25.699Z,9.80
2018-06-12T08:44:55.103Z,9.10
2018-06-12T08:47:24.867Z,10.37
2018-06-12T08:49:54.438Z,10.50
2018-06-12T08:52:25.149Z,9.40
2018-06-12T08:54:55.287Z,10.13
2018-06-12T08:57:24.847Z,9.50
2018-06-12T08:59:54.250Z,8.73
2018-06-12T09:02:23.683Z,8.50
2018-06-12T09:04:53.484Z,8.40
2018-06-12T09:07:23.498Z,7.57
2018-06-12T09:09:53.099Z,8.33
2018-06-12T09:12:22.821Z,7.23
2018-06-12T09:14:52.262Z,7.30
2018-06-12T09:17:21.839Z,7.50
2018-06-12T09:19:51.248Z,6.43
2018-06-12T09:22:20.640Z,6.90
2018-06-12T09:24:50.957Z,7.73
2018-06-12T09:27:20.312Z,8.60
2018-06-12T09:29:49.660Z,7.23
2018-06-12T09:32:18.984Z,9.30
2018-06-12T09:34:47.983Z,7.50
2018-06-12T09:37:17.171Z,6.80
2018-06-12T09:39:46.737Z,10.70
2018-06-12T09:42:16.014Z,9.20
2018-06-12T09:44:45.442Z,8.90
2018-06-12T09:47:14.788Z,9.90
2018-06-12T09:49:44.137Z,8.80
2018-06-12T09:52:13.502Z,8.10
2018-06-12T09:54:43.466Z,9.20
2018-06-12T09:57:13.494Z,7.53
2018-06-12T09:59:42.799Z,7.77
2018-06-12T10:02:12.146Z,7.73
2018-06-12T10:04:41.438Z,6.60
2018-06-12T10:07:10.798Z,7.90
2018-06-12T10:09:40.853Z,7.70
2018-06-12T10:12:10.187Z,8.07
2018-06-12T10:14:39.593Z,7.43
2018-06-12T10:17:09.114Z,8.00
2018-06-12T10:19:38.487Z,7.43
2018-06-12T10:22:07.873Z,7.17
2018-06-12T10:24:37.310Z,6.70
2018-06-12T10:27:07.073Z,6.40
2018-06-12T10:29:36.388Z,6.70
2018-06-12T10:32:06.162Z,7.20
2018-06-12T10:34:35.502Z,7.47
2018-06-12T10:37:05.253Z,7.70
2018-06-12T10:39:36.833Z,8.00
2018-06-12T10:42:06.382Z,7.30
2018-06-12T10:44:35.976Z,8.30
2018-06-12T10:47:05.769Z,7.90
2018-06-12T10:49:36.097Z,9.60
2018-06-12T10:52:05.685Z,8.33
2018-06-12T10:54:35.137Z,7.27
2018-06-12T10:57:04.468Z,8.40
2018-06-12T10:59:33.851Z,8.60
2018-06-12T11:02:03.274Z,8.13
2018-06-12T11:04:32.661Z,9.07
2018-06-12T11:07:02.077Z,10.10
2018-06-12T11:09:31.678Z,10.47
2018-06-12T11:12:01.065Z,8.80
2018-06-12T11:14:30.329Z,8.60
2018-06-12T11:16:59.645Z,9.20
2018-06-12T11:19:29.055Z,9.10
2018-06-12T11:21:58.453Z,8.43
2018-06-12T11:24:27.778Z,9.87
2018-06-12T11:26:59.059Z,9.13
2018-06-12T11:29:28.654Z,7.43
2018-06-12T11:31:58.128Z,7.33
2018-06-12T11:34:28.312Z,7.90
2018-06-12T11:36:57.692Z,8.37
2018-06-12T11:39:27.249Z,8.57
2018-06-12T11:41:57.154Z,6.43
2018-06-12T11:44:26.664Z,7.47
2018-06-12T11:46:55.999Z,7.40
2018-06-12T11:49:25.311Z,7.63
2018-06-12T11:51:55.413Z,8.00
2018-06-12T11:54:27.571Z,8.37
2018-06-12T11:56:57.880Z,8.57
2018-06-12T11:59:27.422Z,7.03
2018-06-12T12:01:57.514Z,7.17
2018-06-12T12:04:26.861Z,8.13
2018-06-12T12:06:56.267Z,7.20
2018-06-12T12:09:25.637Z,7.33
2018-06-12T12:11:55.151Z,8.23
2018-06-12T12:14:24.550Z,8.10
2018-06-12T12:16:54.383Z,8.00
2018-06-12T12:19:23.934Z,9.33
2018-06-12T12:21:53.431Z,8.67
2018-06-12T12:24:22.710Z,7.67
2018-06-12T12:26:52.123Z,8.33
2018-06-12T12:29:21.635Z,9.37
2018-06-12T12:31:50.939Z,8.50
2018-06-12T12:34:20.274Z,8.30
2018-06-12T12:36:50.558Z,7.33
2018-06-12T12:39:20.483Z,7.40
2018-06-12T12:41:49.955Z,6.63
2018-06-12T12:44:19.470Z,6.93
2018-06-12T12:46:48.806Z,6.53
2018-06-12T12:49:18.751Z,7.03
2018-06-12T12:51:48.039Z,6.00
2018-06-12T12:54:17.337Z,5.47
2018-06-12T12:56:46.680Z,6.83
2018-06-12T12:59:16.122Z,5.73
2018-06-12T13:01:45.470Z,6.10
2018-06-12T13:04:14.840Z,5.97
2018-06-12T13:06:44.657Z,6.50
2018-06-12T13:09:15.629Z,6.63
2018-06-12T13:11:44.962Z,7.30
2018-06-12T13:14:14.878Z,7.60
2018-06-12T13:16:45.203Z,6.40
2018-06-12T13:19:14.630Z,6.77
2018-06-12T13:21:43.997Z,6.43
2018-06-12T13:24:13.344Z,6.37
2018-06-12T13:26:42.924Z,6.70
2018-06-12T13:29:12.166Z,5.83
2018-06-12T13:31:41.644Z,5.20
2018-06-12T13:34:11.175Z,5.87
2018-06-12T13:36:40.500Z,6.10
2018-06-12T13:39:09.870Z,6.70
2018-06-12T13:41:39.438Z,5.67
2018-06-12T13:44:08.813Z,7.37
2018-06-12T13:46:38.157Z,6.30
2018-06-12T13:49:07.542Z,6.93
2018-06-12T13:51:36.905Z,5.53
2018-06-12T13:54:06.229Z,6.30
2018-06-12T13:56:35.648Z,6.07
2018-06-12T13:59:05.163Z,5.70
2018-06-12T14:01:34.673Z,6.80
2018-06-12T14:04:04.253Z,6.20
2018-06-12T14:06:33.702Z,6.57
2018-06-12T14:09:03.722Z,7.00
2018-06-12T14:11:33.060Z,6.70
2018-06-12T14:14:02.440Z,6.70
2018-06-12T14:16:31.881Z,6.33
2018-06-12T14:19:01.307Z,6.80
2018-06-12T14:21:30.715Z,5.67
2018-06-12T14:24:00.047Z,5.97
2018-06-12T14:26:29.469Z,5.50
2018-06-12T14:28:58.759Z,5.17
2018-06-12T14:31:28.204Z,5.47
2018-06-12T14:33:57.685Z,5.07
2018-06-12T14:36:28.030Z,4.53
2018-06-12T14:38:57.618Z,5.20
2018-06-12T14:41:26.952Z,5.03
2018-06-12T14:43:56.397Z,5.80
2018-06-12T14:46:25.831Z,5.40
2018-06-12T14:48:55.997Z,5.40
2018-06-12T14:51:25.387Z,6.13
2018-06-12T14:53:55.524Z,6.30
2018-06-12T14:56:24.776Z,5.67
2018-06-12T14:58:54.132Z,4.90
2018-06-12T15:01:23.441Z,6.40
2018-06-12T15:03:52.737Z,5.63
2018-06-12T15:06:22.077Z,5.30
2018-06-12T15:08:51.439Z,5.60
2018-06-12T15:11:20.812Z,5.27
2018-06-12T15:13:50.788Z,5.70
2018-06-12T15:16:20.762Z,5.93
2018-06-12T15:18:51.439Z,5.73
2018-06-12T15:21:21.465Z,5.60
2018-06-12T15:23:50.887Z,5.13
2018-06-12T15:26:21.080Z,4.93
2018-06-12T15:28:51.979Z,5.50
2018-06-12T15:31:21.345Z,5.53
2018-06-12T15:33:50.591Z,4.60
2018-06-12T15:36:20.870Z,5.70
2018-06-12T15:38:50.335Z,4.23
2018-06-12T15:41:19.784Z,5.90
2018-06-12T15:43:49.108Z,5.67
2018-06-12T15:46:18.445Z,4.63
2018-06-12T15:48:47.747Z,5.10
2018-06-12T15:51:17.111Z,5.47
2018-06-12T15:53:46.454Z,4.30
2018-06-12T15:56:15.844Z,4.30
2018-06-12T15:58:45.234Z,4.40
2018-06-12T16:01:14.550Z,4.40
2018-06-12T16:03:43.885Z,5.00
2018-06-12T16:06:13.265Z,4.10
2018-06-12T16:08:42.874Z,4.20
2018-06-12T16:11:11.860Z,3.33
2018-06-12T16:13:41.116Z,4.20
2018-06-12T16:16:10.421Z,4.70
2018-06-12T16:18:39.704Z,4.80
2018-06-12T16:21:09.096Z,3.93
2018-06-12T16:23:39.342Z,4.90
2018-06-12T16:26:08.709Z,5.00
2018-06-12T16:28:38.032Z,5.10
2018-06-12T16:31:07.367Z,4.30
2018-06-12T16:33:36.711Z,6.13
2018-06-12T16:36:06.014Z,5.23
2018-06-12T16:38:35.290Z,5.30
2018-06-12T16:41:04.645Z,4.73
2018-06-12T16:43:34.020Z,4.87
2018-06-12T16:46:03.350Z,4.83
2018-06-12T16:48:32.648Z,4.90
2018-06-12T16:51:04.612Z,5.10
2018-06-12T16:53:34.220Z,4.30
2018-06-12T16:56:03.622Z,4.93
2018-06-12T16:58:32.950Z,4.20
2018-06-12T17:01:02.382Z,3.80
2018-06-12T17:03:31.829Z,4.20
2018-06-12T17:06:01.255Z,4.30
2018-06-12T17:08:30.636Z,4.40
2018-06-12T17:11:00.258Z,4.00
2018-06-12T17:13:29.842Z,3.93
2018-06-12T17:15:59.365Z,4.17
2018-06-12T17:18:28.882Z,4.40
2018-06-12T17:20:58.292Z,3.87
2018-06-12T17:23:27.610Z,4.20
2018-06-12T17:25:57.026Z,4.53
2018-06-12T17:28:26.006Z,4.20
2018-06-12T17:30:55.219Z,4.93
2018-06-12T17:33:24.607Z,4.03
2018-06-12T17:35:55.139Z,4.60
2018-06-12T17:38:24.598Z,4.33
2018-06-12T17:40:53.978Z,5.47
2018-06-12T17:43:23.318Z,4.50
2018-06-12T17:45:52.860Z,4.27
2018-06-12T17:48:22.184Z,4.60
2018-06-12T17:50:52.182Z,4.60
2018-06-12T17:53:21.748Z,4.93
2018-06-12T17:55:51.201Z,5.30
2018-06-12T17:58:20.496Z,4.03
2018-06-12T18:00:50.707Z,5.00
2018-06-12T18:03:19.667Z,4.60
2018-06-12T18:05:48.950Z,4.20
2018-06-12T18:08:18.598Z,6.03
2018-06-12T18:10:48.121Z,5.07
2018-06-12T18:13:17.603Z,4.83
2018-06-12T18:15:47.023Z,4.77
2018-06-12T18:18:16.679Z,4.43
2018-06-12T18:20:47.255Z,5.13
2018-06-12T18:23:16.667Z,6.13
2018-06-12T18:25:46.015Z,5.20
2018-06-12T18:28:15.737Z,5.17
2018-06-12T18:30:45.397Z,6.00
2018-06-12T18:33:14.917Z,5.60
2018-06-12T18:35:44.232Z,5.50
2018-06-12T18:38:13.547Z,5.73
2018-06-12T18:40:43.035Z,5.37
2018-06-12T18:43:12.316Z,5.53
2018-06-12T18:45:41.603Z,5.00
2018-06-12T18:48:10.896Z,6.13
2018-06-12T18:50:40.282Z,5.73
2018-06-12T18:53:09.702Z,5.37
2018-06-12T18:55:39.006Z,5.20
2018-06-12T18:58:08.345Z,4.93
2018-06-12T19:00:37.814Z,5.13
2018-06-12T19:03:07.058Z,5.10
2018-06-12T19:05:36.341Z,6.00
2018-06-12T19:08:05.865Z,4.90
2018-06-12T19:10:35.153Z,6.00
2018-06-12T19:13:04.432Z,6.27
2018-06-12T19:15:33.865Z,7.40
2018-06-12T19:18:03.180Z,6.93
2018-06-12T19:20:32.999Z,6.93
2018-06-12T19:23:02.564Z,6.70
2018-06-12T19:25:31.936Z,7.40
2018-06-12T19:28:01.336Z,8.30
2018-06-12T19:30:30.679Z,7.33
2018-06-12T19:32:59.969Z,8.67
2018-06-12T19:35:29.276Z,8.63
2018-06-12T19:37:58.649Z,7.57
2018-06-12T19:40:27.919Z,7.57
2018-06-12T19:42:57.231Z,7.10
2018-06-12T19:45:27.228Z,7.73
2018-06-12T19:47:56.557Z,7.20
2018-06-12T19:50:25.899Z,9.10
2018-06-12T19:52:55.260Z,7.70
2018-06-12T19:55:25.010Z,8.00
2018-06-12T19:57:54.306Z,11.70
2018-06-12T20:00:23.767Z,9.50
2018-06-12T20:02:53.063Z,10.80
2018-06-12T20:05:22.323Z,10.27
2018-06-12T20:07:51.589Z,9.10
2018-06-12T20:10:20.933Z,9.80
2018-06-12T20:12:50.184Z,10.40
2018-06-12T20:15:19.558Z,9.97
2018-06-12T20:17:48.860Z,10.63
2018-06-12T20:20:17.828Z,10.43
2018-06-12T20:22:47.001Z,10.80
2018-06-12T20:25:16.298Z,9.83
2018-06-12T20:27:45.596Z,11.07
2018-06-12T20:30:14.976Z,9.67
2018-06-12T20:32:44.310Z,11.20
2018-06-12T20:35:13.660Z,11.90
2018-06-12T20:37:42.964Z,11.73
2018-06-12T20:40:12.286Z,12.23
2018-06-12T20:42:41.751Z,11.33
2018-06-12T20:45:11.082Z,10.83
2018-06-12T20:47:40.729Z,12.10
2018-06-12T20:50:10.087Z,12.37
2018-06-12T20:52:39.453Z,12.13
2018-06-12T20:55:08.737Z,12.23
2018-06-12T20:57:37.751Z,13.37
2018-06-12T21:00:06.913Z,11.80
2018-06-12T21:02:36.156Z,11.47
2018-06-12T21:05:05.498Z,13.17
2018-06-12T21:07:34.795Z,13.33
2018-06-12T21:10:04.492Z,12.17
2018-06-12T21:12:34.241Z,12.10
2018-06-12T21:15:03.683Z,13.03
2018-06-12T21:17:33.201Z,12.43
2018-06-12T21:20:02.597Z,12.17
2018-06-12T21:22:31.909Z,10.67
2018-06-12T21:25:01.233Z,11.13
2018-06-12T21:27:30.560Z,10.17
2018-06-12T21:29:59.893Z,9.80
2018-06-12T21:32:29.193Z,11.47
2018-06-12T21:34:58.157Z,11.70
2018-06-12T21:37:27.414Z,11.83
2018-06-12T21:39:56.777Z,11.00
2018-06-12T21:42:26.187Z,12.10
2018-06-12T21:44:55.547Z,11.37
2018-06-12T21:47:24.936Z,10.40
2018-06-12T21:49:54.436Z,12.57
2018-06-12T21:52:23.689Z,11.30
2018-06-12T21:54:53.876Z,10.97
2018-06-12T21:57:23.240Z,11.80
2018-06-12T21:59:52.576Z,11.90
2018-06-12T22:02:22.146Z,11.50
2018-06-12T22:04:51.485Z,12.47
2018-06-12T22:07:20.916Z,12.47
2018-06-12T22:09:50.915Z,11.40
2018-06-12T22:12:20.252Z,12.00
2018-06-12T22:14:49.755Z,12.60
2018-06-12T22:17:19.135Z,11.60
2018-06-12T22:19:48.549Z,14.37
2018-06-12T22:22:17.878Z,12.10
2018-06-12T22:24:47.222Z,12.90
2018-06-12T22:27:16.612Z,12.60
2018-06-12T22:29:45.920Z,12.83
2018-06-12T22:32:15.262Z,12.63
2018-06-12T22:34:44.570Z,12.47
2018-06-12T22:37:13.850Z,11.03
2018-06-12T22:39:43.136Z,12.07
2018-06-12T22:42:12.511Z,12.20
2018-06-12T22:44:41.871Z,12.17
2018-06-12T22:47:11.385Z,12.40
2018-06-12T22:49:40.874Z,12.90
2018-06-12T22:52:10.165Z,12.80
2018-06-12T22:54:39.569Z,13.60
2018-06-12T22:57:08.978Z,13.10
2018-06-12T22:59:38.293Z,12.40
2018-06-12T23:02:07.656Z,12.80
2018-06-12T23:04:37.027Z,12.50
2018-06-12T23:07:06.414Z,13.90
2018-06-12T23:09:35.748Z,12.97
2018-06-12T23:12:05.663Z,13.80
2018-06-12T23:14:34.972Z,13.53
2018-06-12T23:17:04.409Z,13.00
2018-06-12T23:19:43.517Z,12.23
2018-06-12T23:22:13.292Z,13.17
2018-06-12T23:24:42.604Z,11.63
2018-06-12T23:27:11.948Z,13.17
2018-06-12T23:29:41.264Z,13.90
2018-06-12T23:32:10.698Z,12.70
2018-06-12T23:34:40.106Z,12.77
2018-06-12T23:37:09.361Z,13.87
2018-06-12T23:39:38.742Z,13.53
2018-06-12T23:42:08.127Z,14.87
2018-06-12T23:44:37.539Z,14.27
2018-06-12T23:47:06.856Z,14.30
2018-06-12T23:49:36.092Z,12.40
2018-06-12T23:52:05.571Z,12.30
2018-06-12T23:54:34.509Z,11.77
2018-06-12T23:57:03.762Z,12.57
2018-06-12T23:59:33.029Z,13.93
